createdAt,value
2024-01-11T00:00:46.473Z,141.30
2024-01-11T00:03:52.927Z,127.00
2024-01-11T00:06:59.319Z,126.60
2024-01-11T00:10:06.740Z,123.60
2024-01-11T00:13:13.106Z,144.50
2024-01-11T00:16:19.536Z,130.60
2024-01-11T00:19:25.959Z,140.40
2024-01-11T00:22:33.276Z,142.70
2024-01-11T00:25:39.885Z,167.10
2024-01-11T00:28:46.222Z,155.60
2024-01-11T00:31:52.558Z,151.40
2024-01-11T00:34:59.315Z,154.60
2024-01-11T00:38:05.945Z,152.20
2024-01-11T00:41:12.361Z,144.80
2024-01-11T00:44:18.926Z,138.40
2024-01-11T00:47:25.391Z,135.30
2024-01-11T00:50:31.938Z,143.80
2024-01-11T00:53:38.394Z,152.10
2024-01-11T00:56:44.764Z,149.60
2024-01-11T00:59:51.227Z,142.30
2024-01-11T01:02:58.007Z,141.70
2024-01-11T01:06:05.042Z,144.00
2024-01-11T01:09:11.476Z,142.50
2024-01-11T01:12:17.965Z,146.50
2024-01-11T01:15:24.324Z,157.30
2024-01-11T01:18:30.931Z,159.80
2024-01-11T01:21:37.381Z,158.00
2024-01-11T01:24:43.994Z,149.80
2024-01-11T01:27:50.664Z,149.80
2024-01-11T01:30:57.117Z,148.50
2024-01-11T01:34:03.685Z,136.90
2024-01-11T01:37:10.105Z,136.10
2024-01-11T01:40:17.094Z,140.60
2024-01-11T01:43:23.393Z,131.90
2024-01-11T01:46:30.677Z,133.40
2024-01-11T01:49:38.364Z,125.10
2024-01-11T01:52:46.772Z,131.40
2024-01-11T01:55:54.845Z,118.20
2024-01-11T01:59:03.587Z,130.60
2024-01-11T02:02:10.731Z,132.80
2024-01-11T02:05:19.312Z,125.20
2024-01-11T02:08:28.078Z,127.00
2024-01-11T02:11:35.120Z,125.60
2024-01-11T02:14:41.856Z,133.40
2024-01-11T02:17:48.541Z,135.50
2024-01-11T02:20:55.219Z,125.00
2024-01-11T02:24:12.383Z,129.40
2024-01-11T02:27:18.725Z,123.70
2024-01-11T02:30:25.171Z,111.00
2024-01-11T02:33:31.822Z,112.90
2024-01-11T02:36:38.314Z,110.70
2024-01-11T02:39:44.839Z,116.90
2024-01-11T02:42:51.226Z,113.10
2024-01-11T02:46:00.976Z,109.20
2024-01-11T02:49:07.475Z,110.40
2024-01-11T02:52:14.098Z,109.10
2024-01-11T02:55:20.439Z,111.10
2024-01-11T02:58:26.762Z,118.50
2024-01-11T03:01:33.852Z,107.70
2024-01-11T03:04:40.340Z,116.00
2024-01-11T03:07:46.765Z,102.50
2024-01-11T03:10:53.084Z,111.70
2024-01-11T03:13:59.535Z,101.60
2024-01-11T03:17:06.314Z,88.00
2024-01-11T03:20:13.861Z,115.00
2024-01-11T03:23:21.022Z,109.60
2024-01-11T03:26:27.470Z,108.50
2024-01-11T03:29:33.905Z,92.30
2024-01-11T03:32:41.398Z,86.90
2024-01-11T03:35:48.085Z,91.50
2024-01-11T03:38:54.581Z,85.90
2024-01-11T03:42:00.963Z,83.30
2024-01-11T03:45:08.890Z,81.00
2024-01-11T03:48:15.421Z,75.90
2024-01-11T03:51:21.830Z,80.30
2024-01-11T03:54:28.187Z,87.30
2024-01-11T03:57:34.546Z,93.70
2024-01-11T04:00:40.974Z,99.20
2024-01-11T04:03:47.374Z,112.50
2024-01-11T04:06:54.027Z,134.20
2024-01-11T04:10:00.345Z,133.90
2024-01-11T04:13:09.073Z,128.50
2024-01-11T04:16:15.477Z,140.20
2024-01-11T04:19:23.858Z,134.50
2024-01-11T04:22:32.098Z,131.60
2024-01-11T04:25:39.529Z,131.00
2024-01-11T04:28:45.953Z,134.10
2024-01-11T04:31:52.393Z,130.00
2024-01-11T04:34:58.929Z,124.80
2024-01-11T04:38:05.791Z,106.70
2024-01-11T04:41:14.039Z,94.90
2024-01-11T04:44:20.510Z,93.40
2024-01-11T04:47:27.035Z,90.40
2024-01-11T04:50:33.476Z,97.00
2024-01-11T04:53:42.565Z,88.70
2024-01-11T04:56:49.121Z,100.20
2024-01-11T04:59:55.615Z,79.30
2024-01-11T05:03:02.168Z,88.80
2024-01-11T05:06:09.192Z,92.20
2024-01-11T05:09:16.730Z,95.80
2024-01-11T05:12:23.115Z,104.90
2024-01-11T05:15:29.454Z,103.40
2024-01-11T05:18:35.860Z,93.70
2024-01-11T05:21:42.471Z,96.40
2024-01-11T05:24:48.803Z,94.10
2024-01-11T05:27:55.161Z,96.20
2024-01-11T05:31:01.605Z,86.00
2024-01-11T05:34:08.267Z,83.70
2024-01-11T05:37:14.770Z,78.10
2024-01-11T05:40:21.463Z,84.20
2024-01-11T05:43:27.844Z,81.70
2024-01-11T05:46:34.351Z,85.30
2024-01-11T05:49:40.737Z,86.60
2024-01-11T05:52:47.182Z,96.80
2024-01-11T05:55:55.282Z,94.00
2024-01-11T05:59:02.013Z,84.80
2024-01-11T06:02:08.711Z,94.50
2024-01-11T06:05:15.164Z,79.60
2024-01-11T06:08:21.640Z,89.70
2024-01-11T06:11:27.991Z,94.40
2024-01-11T06:14:34.431Z,92.60
2024-01-11T06:17:41.035Z,102.90
2024-01-11T06:20:48.109Z,105.80
2024-01-11T06:23:54.721Z,115.30
2024-01-11T06:27:01.114Z,100.60
2024-01-11T06:30:09.604Z,99.90
2024-01-11T06:33:16.533Z,88.60
2024-01-11T06:36:23.514Z,94.40
2024-01-11T06:39:30.801Z,96.60
2024-01-11T06:42:37.347Z,92.10
2024-01-11T06:45:45.162Z,77.10
2024-01-11T06:48:51.749Z,65.50
2024-01-11T06:51:58.222Z,70.50
2024-01-11T06:55:04.600Z,75.60
2024-01-11T06:58:11.001Z,85.50
2024-01-11T07:01:17.368Z,76.60
2024-01-11T07:04:23.722Z,78.40
2024-01-11T07:07:30.106Z,74.30
2024-01-11T07:10:36.681Z,70.70
2024-01-11T07:13:43.796Z,76.20
2024-01-11T07:16:50.911Z,80.20
2024-01-11T07:19:57.354Z,83.40
2024-01-11T07:23:04.006Z,85.00
2024-01-11T07:26:10.376Z,85.00
2024-01-11T07:29:16.749Z,100.30
2024-01-11T07:32:23.221Z,92.50
2024-01-11T07:35:29.731Z,93.80
2024-01-11T07:38:36.033Z,85.60
2024-01-11T07:41:43.168Z,83.20
2024-01-11T07:44:49.708Z,81.10
2024-01-11T07:47:56.294Z,86.10
2024-01-11T07:51:03.816Z,74.20
2024-01-11T07:54:10.205Z,87.40
2024-01-11T07:57:16.951Z,88.80
2024-01-11T08:00:24.550Z,95.80
2024-01-11T08:03:31.148Z,95.10
2024-01-11T08:06:37.748Z,96.70
2024-01-11T08:09:46.830Z,95.50
2024-01-11T08:12:53.642Z,95.00
2024-01-11T08:16:00.011Z,109.60
2024-01-11T08:19:06.818Z,123.50
2024-01-11T08:22:13.857Z,135.60
2024-01-11T08:25:20.334Z,142.30
2024-01-11T08:28:26.689Z,151.70
2024-01-11T08:31:34.415Z,118.90
2024-01-11T08:34:41.704Z,101.50
2024-01-11T08:37:48.175Z,119.60
2024-01-11T08:40:54.548Z,116.30
2024-01-11T08:44:00.967Z,128.00
2024-01-11T08:47:07.670Z,140.90
2024-01-11T08:50:18.556Z,137.20
2024-01-11T08:53:26.404Z,137.40
2024-01-11T08:56:32.805Z,138.70
2024-01-11T08:59:39.329Z,136.20
2024-01-11T09:02:45.715Z,137.70
2024-01-11T09:05:52.191Z,164.60
2024-01-11T09:08:58.676Z,143.20
2024-01-11T09:12:06.011Z,144.30
2024-01-11T09:15:12.937Z,99.30
2024-01-11T09:18:19.483Z,105.80
2024-01-11T09:21:26.983Z,109.60
2024-01-11T09:24:37.010Z,86.30
2024-01-11T09:27:44.882Z,66.10
2024-01-11T09:30:51.362Z,55.50
2024-01-11T09:33:58.472Z,28.40
2024-01-11T09:37:05.077Z,27.80
2024-01-11T09:40:13.449Z,16.30
2024-01-11T09:43:19.988Z,17.40
2024-01-11T09:46:28.160Z,13.10
2024-01-11T09:49:35.794Z,16.70
2024-01-11T09:52:44.128Z,13.90
2024-01-11T09:55:51.127Z,12.40
2024-01-11T09:58:57.613Z,13.30
2024-01-11T10:02:09.397Z,12.70
2024-01-11T10:05:16.336Z,12.80
2024-01-11T10:08:24.256Z,12.90
2024-01-11T10:11:30.738Z,11.80
2024-01-11T10:14:37.336Z,12.60
2024-01-11T10:17:47.519Z,12.00
2024-01-11T10:20:54.199Z,14.30
2024-01-11T10:24:05.670Z,12.40
2024-01-11T10:27:12.698Z,14.20
2024-01-11T10:30:21.515Z,12.90
2024-01-11T10:33:28.028Z,12.90
2024-01-11T10:36:36.904Z,13.20
2024-01-11T10:39:44.446Z,14.00
2024-01-11T10:42:54.601Z,14.00
2024-01-11T10:46:05.529Z,17.10
2024-01-11T10:49:14.182Z,14.80
2024-01-11T10:52:30.196Z,13.80
2024-01-11T10:55:38.710Z,13.90
2024-01-11T10:58:47.761Z,14.40
2024-01-11T11:01:57.371Z,15.60
2024-01-11T11:05:05.765Z,14.30
2024-01-11T11:08:14.930Z,15.40
2024-01-11T11:11:21.786Z,15.70
2024-01-11T11:14:30.459Z,18.20
2024-01-11T11:17:37.846Z,16.50
2024-01-11T11:20:44.540Z,16.40
2024-01-11T11:23:51.566Z,14.90
2024-01-11T11:26:58.638Z,14.60
2024-01-11T11:30:05.402Z,16.10
2024-01-11T11:33:20.133Z,15.90
2024-01-11T11:36:32.667Z,14.50
2024-01-11T11:39:39.199Z,14.90
2024-01-11T11:42:46.238Z,15.20
2024-01-11T11:45:54.384Z,15.20
2024-01-11T11:49:01.382Z,14.80
2024-01-11T11:52:08.089Z,12.80
2024-01-11T11:55:16.482Z,13.90
2024-01-11T11:58:23.050Z,23.40
2024-01-11T12:01:29.465Z,63.50
2024-01-11T12:04:36.041Z,107.10
2024-01-11T12:07:42.529Z,57.20
2024-01-11T12:10:48.947Z,49.10
2024-01-11T12:13:58.927Z,21.90
2024-01-11T12:17:06.383Z,20.70
2024-01-11T12:20:15.742Z,89.80
2024-01-11T12:23:22.330Z,49.00
2024-01-11T12:26:28.962Z,87.70
2024-01-11T12:29:43.819Z,53.60
2024-01-11T12:32:56.134Z,91.60
2024-01-11T12:36:02.565Z,17.30
2024-01-11T12:42:15.301Z,75.70
2024-01-11T12:45:21.978Z,34.80
2024-01-11T12:48:28.597Z,28.20
2024-01-11T12:51:38.205Z,19.40
2024-01-11T12:54:45.637Z,24.30
2024-01-11T12:57:52.093Z,38.70
2024-01-11T13:00:58.919Z,19.80
2024-01-11T13:04:05.483Z,24.00
2024-01-11T13:07:13.561Z,25.50
2024-01-11T13:10:20.103Z,20.80
2024-01-11T13:13:27.545Z,17.30
2024-01-11T13:16:34.448Z,18.70
2024-01-11T13:19:40.964Z,34.30
2024-01-11T13:22:47.552Z,16.20
2024-01-11T13:25:54.397Z,22.00
2024-01-11T13:29:00.867Z,26.40
2024-01-11T13:32:08.000Z,20.90
2024-01-11T13:35:15.243Z,17.00
2024-01-11T13:38:25.139Z,43.20
2024-01-11T13:41:32.092Z,50.80
2024-01-11T13:44:38.672Z,29.80
2024-01-11T13:47:45.400Z,35.50
2024-01-11T13:50:51.923Z,18.30
2024-01-11T13:53:59.030Z,21.90
2024-01-11T13:57:05.759Z,22.70
2024-01-11T14:00:14.810Z,44.30
2024-01-11T14:03:21.604Z,34.30
2024-01-11T14:06:28.297Z,24.20
2024-01-11T14:09:34.774Z,20.80
2024-01-11T14:12:41.648Z,51.50
2024-01-11T14:15:49.409Z,17.90
2024-01-11T14:18:56.083Z,24.60
2024-01-11T14:22:02.491Z,20.20
2024-01-11T14:25:12.286Z,27.80
2024-01-11T14:28:19.277Z,28.70
2024-01-11T14:31:25.752Z,33.50
2024-01-11T14:34:32.374Z,30.20
2024-01-11T14:37:40.838Z,22.40
2024-01-11T14:40:47.622Z,26.50
2024-01-11T14:43:55.984Z,123.80
2024-01-11T14:47:02.683Z,35.40
2024-01-11T14:50:12.574Z,35.10
2024-01-11T14:53:19.742Z,50.10
2024-01-11T14:56:26.319Z,30.30
2024-01-11T14:59:33.290Z,27.60
2024-01-11T15:02:39.826Z,26.60
2024-01-11T15:05:46.583Z,23.60
2024-01-11T15:08:53.627Z,32.60
2024-01-11T15:12:01.408Z,35.10
2024-01-11T15:15:10.640Z,41.40
2024-01-11T15:18:17.139Z,44.60
2024-01-11T15:21:23.771Z,33.70
2024-01-11T15:24:31.072Z,34.70
2024-01-11T15:27:38.048Z,37.30
2024-01-11T15:30:44.795Z,44.10
2024-01-11T15:33:51.518Z,40.10
2024-01-11T15:36:58.300Z,42.40
2024-01-11T15:40:05.254Z,35.90
2024-01-11T15:43:11.613Z,47.70
2024-01-11T15:49:22.737Z,70.20
2024-01-11T15:52:29.105Z,49.80
2024-01-11T15:55:35.521Z,51.80
2024-01-11T15:58:41.933Z,54.90
2024-01-11T16:01:56.647Z,63.20
2024-01-11T16:05:12.298Z,41.00
2024-01-11T16:08:18.882Z,60.60
2024-01-11T16:11:26.193Z,68.20
2024-01-11T16:14:32.725Z,41.80
2024-01-11T16:17:39.624Z,109.20
2024-01-11T16:20:46.304Z,69.40
2024-01-11T16:23:53.486Z,46.30
2024-01-11T16:27:00.620Z,55.00
2024-01-11T16:30:08.918Z,83.10
2024-01-11T16:33:15.776Z,127.60
2024-01-11T16:36:22.287Z,69.80
2024-01-11T16:39:28.630Z,77.50
2024-01-11T16:45:41.610Z,50.70
2024-01-11T16:48:48.469Z,171.20
2024-01-11T16:51:54.893Z,69.50
2024-01-11T16:55:01.364Z,100.70
2024-01-11T16:58:07.989Z,48.00
2024-01-11T17:01:14.826Z,60.00
2024-01-11T17:04:21.314Z,53.10
2024-01-11T17:07:27.769Z,55.70
2024-01-11T17:10:34.728Z,50.20
2024-01-11T17:13:41.119Z,53.50
2024-01-11T17:16:47.401Z,68.00
2024-01-11T17:22:58.523Z,47.20
2024-01-11T17:26:07.271Z,54.40
2024-01-11T17:29:13.766Z,43.60
2024-01-11T17:32:20.749Z,42.70
2024-01-11T17:35:27.348Z,45.00
2024-01-11T17:38:33.843Z,47.60
2024-01-11T17:41:44.261Z,48.30
2024-01-11T17:44:50.983Z,47.10
2024-01-11T17:47:58.314Z,43.30
2024-01-11T17:51:05.476Z,56.60
2024-01-11T17:54:11.980Z,42.30
2024-01-11T17:57:18.460Z,48.80
2024-01-11T18:00:26.195Z,46.60
2024-01-11T18:03:32.584Z,44.90
2024-01-11T18:06:39.944Z,46.60
2024-01-11T18:09:46.518Z,44.90
2024-01-11T18:12:52.902Z,44.90
2024-01-11T18:15:59.350Z,44.70
2024-01-11T18:19:06.715Z,44.90
2024-01-11T18:22:13.169Z,48.20
2024-01-11T18:25:19.878Z,46.90
2024-01-11T18:28:26.411Z,48.70
2024-01-11T18:31:33.096Z,46.70
2024-01-11T18:34:39.436Z,46.20
2024-01-11T18:37:45.918Z,49.80
2024-01-11T18:40:52.446Z,46.20
2024-01-11T18:43:58.675Z,44.40
2024-01-11T18:50:11.614Z,45.70
2024-01-11T18:53:18.754Z,46.10
2024-01-11T18:56:25.269Z,43.70
2024-01-11T18:59:31.691Z,45.50
2024-01-11T19:02:38.354Z,43.60
2024-01-11T19:05:45.283Z,45.80
2024-01-11T19:08:51.966Z,43.80
2024-01-11T19:11:59.768Z,45.40
2024-01-11T19:15:07.201Z,47.70
2024-01-11T19:18:14.655Z,47.20
2024-01-11T19:21:38.116Z,42.20
2024-01-11T19:24:44.386Z,46.80
2024-01-11T19:30:57.216Z,43.20
2024-01-11T19:34:03.650Z,41.30
2024-01-11T19:37:11.618Z,44.70
2024-01-11T19:40:19.122Z,43.80
2024-01-11T19:43:25.533Z,44.10
2024-01-11T19:46:33.889Z,47.70
2024-01-11T19:49:40.334Z,46.20
2024-01-11T19:52:46.759Z,44.70
2024-01-11T19:55:58.112Z,45.20
2024-01-11T20:02:09.398Z,44.60
2024-01-11T20:05:16.032Z,70.40
2024-01-11T20:08:25.890Z,56.30
2024-01-11T20:11:32.534Z,48.50
2024-01-11T20:14:40.903Z,52.60
2024-01-11T20:17:47.493Z,58.40
2024-01-11T20:20:54.358Z,56.80
2024-01-11T20:24:00.813Z,60.00
2024-01-11T20:27:07.722Z,82.30
2024-01-11T20:30:15.095Z,98.60
2024-01-11T20:33:21.679Z,161.80
2024-01-11T20:36:28.302Z,123.00
2024-01-11T20:39:34.671Z,108.80
2024-01-11T20:42:41.079Z,196.50
2024-01-11T20:45:47.731Z,159.70
2024-01-11T20:48:54.381Z,89.70
2024-01-11T20:52:02.050Z,61.10
2024-01-11T20:55:09.617Z,153.60
2024-01-11T20:58:16.016Z,194.40
2024-01-11T21:01:22.554Z,102.20
2024-01-11T21:04:28.850Z,77.00
2024-01-11T21:10:39.816Z,74.50
2024-01-11T21:13:46.132Z,101.10
2024-01-11T21:19:57.165Z,70.00
2024-01-11T21:23:38.026Z,65.50
2024-01-11T21:26:45.460Z,72.00
2024-01-11T21:29:51.861Z,77.30
2024-01-11T21:32:58.447Z,70.00
2024-01-11T21:36:05.281Z,109.70
2024-01-11T21:39:11.672Z,45.30
2024-01-11T21:42:18.053Z,45.40
2024-01-11T21:45:25.921Z,41.40
2024-01-11T21:48:32.610Z,58.30
2024-01-11T21:51:39.254Z,54.20
2024-01-11T21:54:45.621Z,52.10
2024-01-11T21:57:51.997Z,51.60
2024-01-11T22:00:58.970Z,53.60
2024-01-11T22:04:07.181Z,50.70
2024-01-11T22:07:13.791Z,80.20
2024-01-11T22:10:20.663Z,55.90
2024-01-11T22:13:27.242Z,46.70
2024-01-11T22:16:34.977Z,53.20
2024-01-11T22:19:42.903Z,47.70
2024-01-11T22:22:49.406Z,48.70
2024-01-11T22:25:55.695Z,71.30
2024-01-11T22:32:08.014Z,56.20
2024-01-11T22:35:14.585Z,77.40
2024-01-11T22:38:20.968Z,68.00
2024-01-11T22:41:27.294Z,43.60
2024-01-11T22:44:36.474Z,71.10
2024-01-11T22:47:43.468Z,47.70
2024-01-11T22:50:49.916Z,51.00
2024-01-11T22:53:56.371Z,57.80
2024-01-11T22:57:02.742Z,45.00
2024-01-11T23:00:24.299Z,44.30
2024-01-11T23:03:30.792Z,50.00
2024-01-11T23:06:37.917Z,70.70
2024-01-11T23:09:44.701Z,61.00
2024-01-11T23:12:51.048Z,48.40
2024-01-11T23:15:57.443Z,57.00
2024-01-11T23:19:04.002Z,44.00
2024-01-11T23:22:10.319Z,45.50
2024-01-11T23:28:22.911Z,42.50
2024-01-11T23:31:29.587Z,38.40
2024-01-11T23:34:35.978Z,39.60
2024-01-11T23:37:42.423Z,41.40
2024-01-11T23:40:48.751Z,40.90
2024-01-11T23:43:55.106Z,41.30
2024-01-11T23:50:07.392Z,41.10
2024-01-11T23:53:13.983Z,43.60
2024-01-11T23:56:20.574Z,42.00
2024-01-11T23:59:27.078Z,41.90
